createdAt,value
2023-01-17T00:02:11.703Z,98991.06
2023-01-17T00:04:57.384Z,98982.22
2023-01-17T00:07:43.751Z,99001.88
2023-01-17T00:10:22.832Z,98998.97
2023-01-17T00:12:50.993Z,99004.94
2023-01-17T00:15:20.098Z,98992.84
2023-01-17T00:17:48.060Z,98978.34
2023-01-17T00:20:36.417Z,99006.44
2023-01-17T00:23:52.355Z,98988.63
2023-01-17T00:26:20.031Z,99011.69
2023-01-17T00:28:47.154Z,99001.06
2023-01-17T00:31:15.851Z,99004.56
2023-01-17T00:33:42.956Z,98993.16
2023-01-17T00:36:10.988Z,98997.47
2023-01-17T00:38:39.407Z,99010.28
2023-01-17T00:41:08.397Z,98982.84
2023-01-17T00:43:53.988Z,99008.28
2023-01-17T00:46:39.491Z,99005.97
2023-01-17T00:49:25.406Z,99011.38
2023-01-17T00:52:10.659Z,99003.28
2023-01-17T00:54:55.944Z,99009.28
2023-01-17T00:57:41.705Z,99005.31
2023-01-17T01:00:27.772Z,98991.19
2023-01-17T01:03:13.029Z,98979.53
2023-01-17T01:05:58.459Z,98980.53
2023-01-17T01:08:46.690Z,99000.91
2023-01-17T01:11:39.994Z,98982.50
2023-01-17T01:14:28.400Z,98987.84
2023-01-17T01:17:14.082Z,98997.28
2023-01-17T01:19:59.694Z,98978.31
2023-01-17T01:22:44.911Z,99002.16
2023-01-17T01:25:30.396Z,99002.31
2023-01-17T01:28:28.849Z,98992.38
2023-01-17T01:31:14.956Z,98999.16
2023-01-17T01:33:41.969Z,98998.31
2023-01-17T01:36:09.271Z,98997.38
2023-01-17T01:38:36.388Z,98985.34
2023-01-17T01:41:03.549Z,98980.13
2023-01-17T01:43:41.281Z,98992.47
2023-01-17T01:46:11.683Z,98981.38
2023-01-17T01:48:55.802Z,99013.47
2023-01-17T01:51:36.168Z,98996.03
2023-01-17T01:54:08.852Z,99009.63
2023-01-17T01:56:36.992Z,99012.84
2023-01-17T01:59:07.105Z,99017.84
2023-01-17T02:01:35.453Z,98988.38
2023-01-17T02:04:03.576Z,99010.09
2023-01-17T02:06:42.210Z,99005.44
2023-01-17T02:09:12.542Z,98987.84
2023-01-17T02:11:41.293Z,98999.56
2023-01-17T02:14:08.869Z,99007.66
2023-01-17T02:17:05.801Z,99017.50
2023-01-17T02:19:44.487Z,98985.09
2023-01-17T02:22:28.048Z,99016.56
2023-01-17T02:25:23.127Z,98999.38
2023-01-17T02:28:17.228Z,99012.34
2023-01-17T02:30:50.790Z,99008.78
2023-01-17T02:33:23.175Z,99017.28
2023-01-17T02:36:11.389Z,99015.81
2023-01-17T02:38:51.959Z,99020.91
2023-01-17T02:41:23.045Z,98981.53
2023-01-17T02:43:51.921Z,99028.09
2023-01-17T02:46:18.691Z,98956.75
2023-01-17T02:48:46.520Z,99010.63
2023-01-17T02:51:48.481Z,99029.00
2023-01-17T02:54:18.258Z,99027.41
2023-01-17T02:57:03.672Z,99018.91
2023-01-17T02:59:52.223Z,99031.13
2023-01-17T03:02:51.680Z,99007.78
2023-01-17T03:05:49.467Z,99016.44
2023-01-17T03:08:17.337Z,99022.63
2023-01-17T03:10:45.631Z,99024.19
2023-01-17T03:13:12.766Z,99041.78
2023-01-17T03:15:40.764Z,99020.50
2023-01-17T03:18:13.859Z,99007.59
2023-01-17T03:20:40.992Z,99043.50
2023-01-17T03:23:07.941Z,99035.00
2023-01-17T03:25:35.407Z,99028.28
2023-01-17T03:28:02.255Z,99017.22
2023-01-17T03:30:29.006Z,99026.19
2023-01-17T03:32:55.813Z,99015.25
2023-01-17T03:35:22.740Z,99006.88
2023-01-17T03:37:49.485Z,99009.19
2023-01-17T03:40:16.476Z,99013.41
2023-01-17T03:42:43.889Z,99005.84
2023-01-17T03:45:11.333Z,99036.38
2023-01-17T03:47:38.056Z,99021.38
2023-01-17T03:50:05.346Z,99023.06
2023-01-17T03:52:32.787Z,99040.59
2023-01-17T03:54:59.745Z,99032.16
2023-01-17T03:57:26.538Z,99037.34
2023-01-17T03:59:53.264Z,99025.91
2023-01-17T04:02:20.297Z,99046.00
2023-01-17T04:04:47.242Z,99020.31
2023-01-17T04:07:13.987Z,99028.03
2023-01-17T04:09:40.765Z,99039.75
2023-01-17T04:12:07.713Z,99036.63
2023-01-17T04:14:34.894Z,99041.50
2023-01-17T04:17:02.727Z,99042.75
2023-01-17T04:19:31.675Z,99038.13
2023-01-17T04:21:58.423Z,99051.91
2023-01-17T04:24:25.159Z,99053.22
2023-01-17T04:26:51.911Z,99059.44
2023-01-17T04:29:18.844Z,99043.03
2023-01-17T04:31:46.460Z,99056.84
2023-01-17T04:34:13.682Z,99065.34
2023-01-17T04:36:40.741Z,99068.97
2023-01-17T04:39:07.629Z,99065.88
2023-01-17T04:41:35.395Z,99064.31
2023-01-17T04:44:02.301Z,99021.88
2023-01-17T04:46:29.131Z,99070.78
2023-01-17T04:48:55.935Z,99065.09
2023-01-17T04:51:22.665Z,99049.22
2023-01-17T04:53:49.398Z,99061.25
2023-01-17T04:56:16.150Z,99072.59
2023-01-17T04:58:42.847Z,99068.56
2023-01-17T05:01:10.111Z,99077.06
2023-01-17T05:03:37.204Z,99061.88
2023-01-17T05:06:03.991Z,99082.06
2023-01-17T05:08:30.851Z,99088.03
2023-01-17T05:10:57.671Z,99067.19
2023-01-17T05:13:24.443Z,99086.59
2023-01-17T05:15:51.336Z,99044.81
2023-01-17T05:18:19.297Z,99087.81
2023-01-17T05:20:46.170Z,99082.91
2023-01-17T05:23:13.022Z,99092.22
2023-01-17T05:25:44.897Z,99098.06
2023-01-17T05:28:13.340Z,99081.22
2023-01-17T05:30:40.388Z,99098.06
2023-01-17T05:33:08.369Z,99089.06
2023-01-17T05:35:35.779Z,99087.53
2023-01-17T05:38:02.655Z,99080.97
2023-01-17T05:40:31.679Z,99103.25
2023-01-17T05:43:00.769Z,99110.16
2023-01-17T05:45:29.873Z,99090.88
2023-01-17T05:47:57.391Z,99086.66
2023-01-17T05:50:42.533Z,99086.53
2023-01-17T05:53:12.109Z,99011.03
2023-01-17T05:55:39.958Z,99101.88
2023-01-17T05:58:08.897Z,99110.25
2023-01-17T06:00:35.922Z,99093.34
2023-01-17T06:03:02.956Z,99084.00
2023-01-17T06:05:30.619Z,99116.91
2023-01-17T06:07:58.131Z,99092.41
2023-01-17T06:10:26.481Z,99107.00
2023-01-17T06:13:03.733Z,99113.91
2023-01-17T06:15:30.828Z,99112.47
2023-01-17T06:17:57.595Z,99094.97
2023-01-17T06:20:24.449Z,99108.66
2023-01-17T06:22:51.227Z,99112.16
2023-01-17T06:25:18.035Z,99103.81
2023-01-17T06:27:44.869Z,99113.09
2023-01-17T06:30:12.032Z,99102.19
2023-01-17T06:32:38.830Z,99123.19
2023-01-17T06:35:05.965Z,99077.91
2023-01-17T06:37:32.775Z,99118.63
2023-01-17T06:39:59.552Z,99122.19
2023-01-17T06:42:26.333Z,99121.34
2023-01-17T06:44:53.060Z,99134.84
2023-01-17T06:47:19.823Z,99134.94
2023-01-17T06:49:46.811Z,99071.97
2023-01-17T06:52:13.623Z,99103.22
2023-01-17T06:54:40.544Z,99137.09
2023-01-17T06:57:09.910Z,99145.63
2023-01-17T06:59:36.696Z,99147.47
2023-01-17T07:02:03.477Z,99161.94
2023-01-17T07:04:30.419Z,99111.63
2023-01-17T07:06:57.200Z,99182.50
2023-01-17T07:09:23.990Z,99175.75
2023-01-17T07:11:52.005Z,99181.50
2023-01-17T07:14:18.798Z,99182.56
2023-01-17T07:16:46.309Z,99187.66
2023-01-17T07:19:13.401Z,99205.53
2023-01-17T07:21:40.552Z,99203.94
2023-01-17T07:24:07.869Z,99197.31
2023-01-17T07:26:40.909Z,99216.59
2023-01-17T07:29:07.792Z,99201.47
2023-01-17T07:31:36.942Z,99194.75
2023-01-17T07:34:04.263Z,99227.69
2023-01-17T07:36:31.054Z,99233.59
2023-01-17T07:38:57.896Z,99233.75
2023-01-17T07:41:24.721Z,99247.28
2023-01-17T07:43:51.607Z,99201.00
2023-01-17T07:46:18.958Z,99254.09
2023-01-17T07:48:45.915Z,99238.19
2023-01-17T07:51:12.748Z,99262.59
2023-01-17T07:53:39.645Z,99256.69
2023-01-17T07:56:08.009Z,99267.66
2023-01-17T07:58:35.794Z,99262.69
2023-01-17T08:01:05.208Z,99268.53
2023-01-17T08:03:35.714Z,99245.78
2023-01-17T08:06:03.286Z,99261.72
2023-01-17T08:08:30.216Z,99282.09
2023-01-17T08:10:57.074Z,99287.97
2023-01-17T08:13:24.194Z,99266.91
2023-01-17T08:15:51.772Z,99295.53
2023-01-17T08:18:18.697Z,99271.97
2023-01-17T08:20:45.487Z,99239.16
2023-01-17T08:23:12.683Z,99304.88
2023-01-17T08:25:40.629Z,99303.13
2023-01-17T08:28:07.391Z,99303.19
2023-01-17T08:30:35.764Z,99313.25
2023-01-17T08:33:02.703Z,99298.06
2023-01-17T08:35:29.574Z,99336.00
2023-01-17T08:37:57.708Z,99298.09
2023-01-17T08:40:24.667Z,99340.25
2023-01-17T08:42:58.989Z,99332.75
2023-01-17T08:45:26.418Z,99352.22
2023-01-17T08:47:53.990Z,99361.63
2023-01-17T08:50:20.914Z,99336.31
2023-01-17T08:52:49.255Z,99365.81
2023-01-17T08:55:17.202Z,99370.88
2023-01-17T08:57:44.006Z,99361.63
2023-01-17T09:00:11.349Z,99380.22
2023-01-17T09:02:38.197Z,99370.81
2023-01-17T09:05:05.491Z,99389.06
2023-01-17T09:07:35.322Z,99380.25
2023-01-17T09:10:02.342Z,99346.84
2023-01-17T09:12:33.423Z,99337.72
2023-01-17T09:15:01.022Z,99365.22
2023-01-17T09:17:27.984Z,99382.88
2023-01-17T09:19:54.708Z,99321.31
2023-01-17T09:22:21.529Z,99398.59
2023-01-17T09:24:48.233Z,99408.88
2023-01-17T09:27:14.965Z,99370.69
2023-01-17T09:29:41.969Z,99404.03
2023-01-17T09:32:08.759Z,99407.91
2023-01-17T09:34:36.649Z,99400.00
2023-01-17T09:37:03.534Z,99422.22
2023-01-17T09:39:30.315Z,99436.22
2023-01-17T09:42:22.790Z,99437.41
2023-01-17T09:44:52.209Z,99397.50
2023-01-17T09:47:45.244Z,99433.41
2023-01-17T09:50:23.989Z,99443.22
2023-01-17T09:52:52.236Z,99442.91
2023-01-17T09:55:19.936Z,99430.72
2023-01-17T09:58:08.758Z,99455.50
2023-01-17T10:00:55.478Z,99413.91
2023-01-17T10:03:43.694Z,99476.78
2023-01-17T10:06:24.151Z,99384.59
2023-01-17T10:09:12.699Z,99476.63
2023-01-17T10:12:13.907Z,99481.38
2023-01-17T10:15:37.684Z,99486.53
2023-01-17T10:18:30.494Z,99451.03
2023-01-17T10:21:15.227Z,99486.88
2023-01-17T10:23:59.979Z,99501.25
2023-01-17T10:26:27.890Z,99466.34
2023-01-17T10:29:02.618Z,99448.91
2023-01-17T10:31:40.930Z,99451.63
2023-01-17T10:34:44.372Z,99509.34
2023-01-17T10:37:21.178Z,99511.63
2023-01-17T10:39:50.007Z,99508.25
2023-01-17T10:42:25.264Z,99515.97
2023-01-17T10:45:21.168Z,99524.81
2023-01-17T10:47:58.222Z,99525.97
2023-01-17T10:50:28.283Z,99526.53
2023-01-17T10:53:01.320Z,99539.75
2023-01-17T10:55:37.701Z,99544.47
2023-01-17T10:58:05.367Z,99550.09
2023-01-17T11:00:44.390Z,99545.72
2023-01-17T11:03:17.482Z,99515.47
2023-01-17T11:05:44.402Z,99549.72
2023-01-17T11:08:13.916Z,99535.00
2023-01-17T11:10:54.438Z,99474.31
2023-01-17T11:13:38.568Z,99555.44
2023-01-17T11:16:09.291Z,99555.13
2023-01-17T11:18:40.450Z,99566.47
2023-01-17T11:21:16.527Z,99572.13
2023-01-17T11:23:47.022Z,99561.44
2023-01-17T11:26:23.314Z,99571.91
2023-01-17T11:28:51.955Z,99558.09
2023-01-17T11:31:18.733Z,99579.06
2023-01-17T11:33:56.760Z,99572.28
2023-01-17T11:36:29.134Z,99570.31
2023-01-17T11:39:04.333Z,99568.13
2023-01-17T11:41:39.691Z,99526.41
2023-01-17T11:44:30.163Z,99567.00
2023-01-17T11:47:11.780Z,99566.66
2023-01-17T11:49:40.108Z,99568.53
2023-01-17T11:52:10.782Z,99575.06
2023-01-17T11:54:40.549Z,99556.09
2023-01-17T11:57:20.319Z,99561.78
2023-01-17T11:59:48.248Z,99559.47
2023-01-17T12:02:41.237Z,99565.28
2023-01-17T12:05:32.189Z,99571.28
2023-01-17T12:08:01.668Z,99571.72
2023-01-17T12:10:50.393Z,99570.69
2023-01-17T12:14:08.260Z,99565.34
2023-01-17T12:16:43.948Z,99570.28
2023-01-17T12:19:22.556Z,99558.94
2023-01-17T12:22:03.929Z,99558.88
2023-01-17T12:25:08.012Z,99573.63
2023-01-17T12:27:55.988Z,99570.78
2023-01-17T12:30:41.961Z,99538.66
2023-01-17T12:33:29.839Z,99535.03
2023-01-17T12:36:01.650Z,99566.50
2023-01-17T12:38:40.196Z,99554.88
2023-01-17T12:41:38.307Z,99551.41
2023-01-17T12:44:05.630Z,99562.56
2023-01-17T12:46:43.372Z,99485.97
2023-01-17T12:49:16.317Z,99564.78
2023-01-17T12:51:47.304Z,99557.81
2023-01-17T12:54:40.222Z,99554.56
2023-01-17T12:57:14.416Z,99549.59
2023-01-17T12:59:54.731Z,99558.28
2023-01-17T13:02:41.719Z,99546.56
2023-01-17T13:05:23.938Z,99564.44
2023-01-17T13:08:31.391Z,99563.28
2023-01-17T13:11:11.589Z,99570.28
2023-01-17T13:13:41.379Z,99559.16
2023-01-17T13:16:37.699Z,99554.97
2023-01-17T13:19:15.813Z,99560.06
2023-01-17T13:21:42.996Z,99559.78
2023-01-17T13:24:22.806Z,99572.28
2023-01-17T13:27:10.757Z,99569.53
2023-01-17T13:29:55.710Z,99564.81
2023-01-17T13:32:44.207Z,99567.63
2023-01-17T13:35:45.180Z,99570.91
2023-01-17T13:38:37.155Z,99575.88
2023-01-17T13:41:09.927Z,99585.28
2023-01-17T13:43:40.735Z,99554.41
2023-01-17T13:46:07.945Z,99565.09
2023-01-17T13:48:45.177Z,99582.34
2023-01-17T13:51:11.946Z,99579.50
2023-01-17T13:53:38.843Z,99582.72
2023-01-17T13:56:27.788Z,99583.72
2023-01-17T13:59:02.207Z,99571.53
2023-01-17T14:01:32.364Z,99586.47
2023-01-17T14:04:02.389Z,99581.81
2023-01-17T14:06:47.993Z,99565.78
2023-01-17T14:09:17.368Z,99581.66
2023-01-17T14:12:00.588Z,99567.56
2023-01-17T14:14:43.115Z,99569.06
2023-01-17T14:17:31.343Z,99577.00
2023-01-17T14:20:19.358Z,99575.63
2023-01-17T14:22:55.843Z,99545.75
2023-01-17T14:25:40.388Z,99578.22
2023-01-17T14:28:31.689Z,99587.13
2023-01-17T14:31:01.026Z,99581.84
2023-01-17T14:33:46.131Z,99592.50
2023-01-17T14:36:25.932Z,99591.38
2023-01-17T14:38:52.871Z,99586.63
2023-01-17T14:41:30.818Z,99603.56
2023-01-17T14:44:00.170Z,99600.09
2023-01-17T14:46:30.095Z,99601.75
2023-01-17T14:49:21.456Z,99595.66
2023-01-17T14:52:06.432Z,99598.94
2023-01-17T14:54:33.647Z,99587.16
2023-01-17T14:57:28.378Z,99583.50
2023-01-17T15:00:22.199Z,99543.78
2023-01-17T15:02:50.739Z,99576.91
2023-01-17T15:05:20.484Z,99585.84
2023-01-17T15:07:53.260Z,99605.97
2023-01-17T15:10:27.189Z,99595.47
2023-01-17T15:12:56.373Z,99595.53
2023-01-17T15:15:42.299Z,99591.66
2023-01-17T15:18:20.203Z,99595.94
2023-01-17T15:21:09.212Z,99614.06
2023-01-17T15:23:46.088Z,99619.53
2023-01-17T15:26:18.413Z,99613.13
2023-01-17T15:28:46.197Z,99618.44
2023-01-17T15:31:45.798Z,99601.97
2023-01-17T15:34:35.933Z,99619.09
2023-01-17T15:37:22.536Z,99629.63
2023-01-17T15:39:49.613Z,99625.16
2023-01-17T15:42:24.323Z,99644.72
2023-01-17T15:44:57.622Z,99627.16
2023-01-17T15:47:33.501Z,99629.81
2023-01-17T15:50:02.891Z,99622.56
2023-01-17T15:52:29.957Z,99622.75
2023-01-17T15:55:12.787Z,99624.16
2023-01-17T15:57:40.173Z,99627.66
2023-01-17T16:00:20.761Z,99642.25
2023-01-17T16:02:55.165Z,99640.16
2023-01-17T16:05:22.617Z,99651.28
2023-01-17T16:07:54.908Z,99658.34
2023-01-17T16:10:31.958Z,99667.78
2023-01-17T16:12:59.609Z,99675.34
2023-01-17T16:15:27.375Z,99666.09
2023-01-17T16:18:02.770Z,99666.34
2023-01-17T16:20:35.152Z,99674.75
2023-01-17T16:23:02.858Z,99671.34
2023-01-17T16:25:33.062Z,99668.16
2023-01-17T16:28:03.879Z,99682.03
2023-01-17T16:30:31.093Z,99678.59
2023-01-17T16:32:58.705Z,99686.50
2023-01-17T16:35:31.502Z,99690.75
2023-01-17T16:38:04.071Z,99684.22
2023-01-17T16:40:39.303Z,99696.75
2023-01-17T16:43:06.383Z,99692.63
2023-01-17T16:45:40.305Z,99694.25
2023-01-17T16:48:07.418Z,99708.56
2023-01-17T16:50:34.304Z,99712.81
2023-01-17T16:53:01.098Z,99658.28
2023-01-17T16:55:27.860Z,99708.91
2023-01-17T16:57:58.128Z,99706.72
2023-01-17T17:00:25.135Z,99707.03
2023-01-17T17:02:52.815Z,99714.47
2023-01-17T17:05:20.348Z,99709.69
2023-01-17T17:07:51.487Z,99722.41
2023-01-17T17:10:20.049Z,99733.72
2023-01-17T17:12:47.273Z,99727.00
2023-01-17T17:15:14.608Z,99718.44
2023-01-17T17:17:43.353Z,99723.78
2023-01-17T17:20:13.278Z,99728.94
2023-01-17T17:22:43.160Z,99725.81
2023-01-17T17:25:11.833Z,99750.56
2023-01-17T17:27:38.962Z,99736.38
2023-01-17T17:30:06.621Z,99749.84
2023-01-17T17:32:34.225Z,99755.41
2023-01-17T17:35:00.990Z,99766.56
2023-01-17T17:37:29.294Z,99755.63
2023-01-17T17:39:57.208Z,99778.34
2023-01-17T17:42:24.053Z,99737.13
2023-01-17T17:44:51.007Z,99797.09
2023-01-17T17:47:18.133Z,99799.75
2023-01-17T17:49:45.007Z,99798.19
2023-01-17T17:52:11.995Z,99815.16
2023-01-17T17:54:38.775Z,99811.06
2023-01-17T17:57:05.567Z,99819.34
2023-01-17T17:59:33.037Z,99787.19
2023-01-17T18:01:59.918Z,99755.47
2023-01-17T18:04:27.573Z,99810.34
2023-01-17T18:06:58.502Z,99794.13
2023-01-17T18:09:25.465Z,99808.41
2023-01-17T18:11:52.335Z,99785.91
2023-01-17T18:14:21.321Z,99815.97
2023-01-17T18:16:48.257Z,99817.19
2023-01-17T18:19:20.945Z,99802.25
2023-01-17T18:21:49.522Z,99815.16
2023-01-17T18:24:17.721Z,99821.28
2023-01-17T18:26:50.323Z,99816.00
2023-01-17T18:29:18.620Z,99809.88
2023-01-17T18:31:46.097Z,99808.81
2023-01-17T18:34:16.022Z,99803.09
2023-01-17T18:36:43.890Z,99814.94
2023-01-17T18:39:18.896Z,99825.47
2023-01-17T18:41:45.933Z,99852.75
2023-01-17T18:44:12.999Z,99820.84
2023-01-17T18:46:40.530Z,99844.66
2023-01-17T18:49:07.745Z,99841.47
2023-01-17T18:51:35.535Z,99854.47
2023-01-17T18:54:07.005Z,99852.84
2023-01-17T18:56:35.052Z,99842.16
2023-01-17T18:59:02.360Z,99838.06
2023-01-17T19:01:33.648Z,99845.97
2023-01-17T19:04:04.011Z,99848.97
2023-01-17T19:06:37.661Z,99840.00
2023-01-17T19:09:05.802Z,99849.53
2023-01-17T19:11:32.943Z,99860.84
2023-01-17T19:13:59.977Z,99853.44
2023-01-17T19:16:29.634Z,99854.19
2023-01-17T19:18:58.514Z,99865.41
2023-01-17T19:21:28.002Z,99870.53
2023-01-17T19:23:56.653Z,99859.22
2023-01-17T19:26:25.614Z,99851.69
2023-01-17T19:28:53.146Z,99866.78
2023-01-17T19:31:27.992Z,99859.06
2023-01-17T19:33:57.656Z,99858.97
2023-01-17T19:36:31.338Z,99853.59
2023-01-17T19:39:04.898Z,99857.09
2023-01-17T19:41:35.400Z,99865.53
2023-01-17T19:44:12.765Z,99844.31
2023-01-17T19:46:39.733Z,99852.75
2023-01-17T19:49:08.190Z,99848.66
2023-01-17T19:51:36.516Z,99847.91
2023-01-17T19:54:04.314Z,99856.50
2023-01-17T19:56:31.233Z,99868.63
2023-01-17T19:59:01.516Z,99861.91
2023-01-17T20:01:30.863Z,99864.38
2023-01-17T20:03:58.613Z,99860.13
2023-01-17T20:06:29.195Z,99834.03
2023-01-17T20:08:56.185Z,99858.44
2023-01-17T20:11:25.118Z,99851.66
2023-01-17T20:13:54.391Z,99871.06
2023-01-17T20:16:22.333Z,99873.63
2023-01-17T20:18:50.259Z,99887.94
2023-01-17T20:21:20.080Z,99883.66
2023-01-17T20:23:48.391Z,99893.53
2023-01-17T20:26:20.939Z,99880.50
2023-01-17T20:28:50.003Z,99875.44
2023-01-17T20:31:20.374Z,99874.31
2023-01-17T20:33:50.498Z,99886.41
2023-01-17T20:36:19.079Z,99883.19
2023-01-17T20:38:46.603Z,99898.44
2023-01-17T20:41:14.541Z,99894.38
2023-01-17T20:43:42.753Z,99881.88
2023-01-17T20:46:10.505Z,99910.94
2023-01-17T20:48:43.532Z,99903.53
2023-01-17T20:51:11.788Z,99901.88
2023-01-17T20:53:39.797Z,99892.56
2023-01-17T20:56:08.872Z,99896.19
2023-01-17T20:58:36.418Z,99892.03
2023-01-17T21:01:03.320Z,99900.53
2023-01-17T21:03:31.706Z,99898.13
2023-01-17T21:06:09.862Z,99903.34
2023-01-17T21:08:39.450Z,99901.66
2023-01-17T21:11:07.795Z,99894.97
2023-01-17T21:13:36.004Z,99917.81
2023-01-17T21:16:03.083Z,99930.75
2023-01-17T21:18:33.248Z,99909.28
2023-01-17T21:21:09.129Z,99918.59
2023-01-17T21:23:37.832Z,99933.72
2023-01-17T21:26:06.753Z,99927.66
2023-01-17T21:28:37.428Z,99922.34
2023-01-17T21:31:19.795Z,99907.00
2023-01-17T21:34:07.125Z,99923.84
2023-01-17T21:36:37.642Z,99875.66
2023-01-17T21:39:07.613Z,99923.16
2023-01-17T21:41:38.109Z,99924.91
2023-01-17T21:44:08.727Z,99924.03
2023-01-17T21:46:40.589Z,99927.63
2023-01-17T21:49:12.319Z,99937.19
2023-01-17T21:51:54.850Z,99929.81
2023-01-17T21:54:47.923Z,99940.97
2023-01-17T21:57:35.971Z,99943.84
2023-01-17T22:00:07.837Z,99952.81
2023-01-17T22:02:35.040Z,99949.78
2023-01-17T22:05:01.863Z,99944.28
2023-01-17T22:07:29.244Z,99951.31
2023-01-17T22:09:57.050Z,99929.56
2023-01-17T22:12:24.193Z,99935.78
2023-01-17T22:14:51.190Z,99935.94
2023-01-17T22:17:18.006Z,99949.59
2023-01-17T22:19:46.116Z,99922.50
2023-01-17T22:22:13.287Z,99942.84
2023-01-17T22:24:40.668Z,99943.16
2023-01-17T22:27:10.584Z,99944.06
2023-01-17T22:29:38.077Z,99943.38
2023-01-17T22:32:05.544Z,99941.84
2023-01-17T22:34:32.463Z,99950.38
2023-01-17T22:37:00.563Z,99926.78
2023-01-17T22:39:27.404Z,99935.34
2023-01-17T22:41:54.129Z,99946.63
2023-01-17T22:44:21.063Z,99948.44
2023-01-17T22:46:48.225Z,99958.56
2023-01-17T22:49:16.928Z,99959.59
2023-01-17T22:51:43.855Z,99967.97
2023-01-17T22:54:11.617Z,99957.78
2023-01-17T22:56:38.405Z,99967.34
2023-01-17T22:59:11.431Z,99949.66
2023-01-17T23:01:42.421Z,99923.50
2023-01-17T23:04:13.868Z,99959.16
2023-01-17T23:06:41.763Z,99955.84
2023-01-17T23:09:11.608Z,99959.97
2023-01-17T23:11:43.041Z,99944.78
2023-01-17T23:14:16.119Z,99954.88
2023-01-17T23:17:08.087Z,99968.50
2023-01-17T23:19:41.793Z,99955.00
2023-01-17T23:22:17.455Z,99949.03
2023-01-17T23:25:09.243Z,99959.06
2023-01-17T23:27:58.884Z,99962.41
2023-01-17T23:30:34.898Z,99975.28
2023-01-17T23:33:07.324Z,99989.88
2023-01-17T23:35:41.559Z,99973.88
2023-01-17T23:38:31.368Z,99983.97
2023-01-17T23:41:21.898Z,99987.56
2023-01-17T23:43:58.473Z,99986.56
2023-01-17T23:46:26.618Z,99978.63
2023-01-17T23:48:55.174Z,99994.41
2023-01-17T23:51:22.087Z,99991.53
2023-01-17T23:53:48.872Z,99988.75
2023-01-17T23:56:18.969Z,99979.19
2023-01-17T23:58:46.958Z,99983.28
